Time;durP1;ratioP1;P1;durP2;ratioP2;P2;SDS_P1;SDS_P2;PMS_P1;PMS_P2;Temp;Humidity;BMP_temperature;BMP_pressure;BME280_temperature;BME280_humidity;BME280_pressure;Samples;Min_cycle;Max_cycle;Signal;HPM_P1;HPM_P2
2022/10/13 00:01:41;;;;;;;1.27;1.27;;;11.90;99.90;11.20;96502.00;;;;5114078;28;20226;-51
2022/10/13 00:04:08;;;;;;;0.87;0.87;;;11.90;99.90;11.20;96501.00;;;;5113912;28;20225;-51
2022/10/13 00:06:34;;;;;;;4.10;2.33;;;11.90;99.90;11.30;96494.00;;;;5113725;28;20212;-50
2022/10/13 00:09:01;;;;;;;5.43;1.87;;;12.00;99.90;11.30;96496.00;;;;5113787;28;20220;-51
2022/10/13 00:11:29;;;;;;;3.27;2.97;;;12.00;99.90;11.30;96493.00;;;;5095734;28;20582;-50
2022/10/13 00:13:58;;;;;;;2.23;2.13;;;12.00;99.90;11.20;96488.00;;;;5113759;28;20240;-51
2022/10/13 00:16:25;;;;;;;1.93;1.83;;;12.00;99.90;11.10;96498.00;;;;5113831;28;20225;-50
2022/10/13 00:18:52;;;;;;;3.47;3.17;;;11.90;99.90;11.20;96448.00;;;;5113593;28;20213;-50
2022/10/13 00:21:21;;;;;;;2.00;1.73;;;11.90;99.90;11.20;96497.00;;;;5113691;28;20202;-51
2022/10/13 00:23:48;;;;;;;1.30;1.30;;;11.90;99.90;11.20;96483.00;;;;5113693;28;20194;-50
2022/10/13 00:26:16;;;;;;;2.97;2.73;;;12.00;99.90;11.20;96491.00;;;;5113435;28;20331;-51
2022/10/13 00:28:43;;;;;;;4.33;3.17;;;12.00;99.90;11.30;96494.00;;;;5113294;28;20214;-51
2022/10/13 00:31:18;;;;;;;6.83;2.97;;;12.00;99.90;11.30;96498.00;;;;5113300;28;20278;-51
2022/10/13 00:33:44;;;;;;;2.47;2.27;;;12.00;99.90;11.30;96494.00;;;;5115619;28;20211;-51
2022/10/13 00:36:13;;;;;;;2.17;1.97;;;12.00;99.90;11.30;96484.00;;;;5098891;28;20228;-50
2022/10/13 00:38:39;;;;;;;2.07;1.93;;;12.00;99.90;11.30;96483.00;;;;5117002;28;20330;-55
2022/10/13 00:41:06;;;;;;;6.90;3.43;;;12.00;99.90;11.30;96479.00;;;;5117082;28;20194;-51
2022/10/13 00:44:03;;;;;;;1.83;1.73;;;12.10;99.90;11.30;96488.00;;;;5116788;28;20218;-50
2022/10/13 00:46:36;;;;;;;2.20;2.00;;;12.00;99.90;11.10;96485.00;;;;5116843;28;20235;-50
2022/10/13 00:49:07;;;;;;;2.50;2.13;;;11.90;99.90;10.90;96489.00;;;;5098815;28;20641;-50
2022/10/13 00:51:42;;;;;;;0.73;0.73;;;11.70;99.90;10.90;96478.00;;;;5116791;28;20198;-51
2022/10/13 00:54:13;;;;;;;1.27;1.20;;;11.60;99.90;10.80;96473.00;;;;5116796;28;20212;-51
2022/10/13 00:56:42;;;;;;;2.77;2.67;;;11.60;99.90;10.80;96478.00;;;;5116794;28;20230;-50
2022/10/13 00:59:21;;;;;;;1.50;1.40;;;11.60;99.90;10.90;96488.00;;;;5116674;28;20214;-50
2022/10/13 01:01:49;;;;;;;1.20;1.20;;;11.50;99.90;10.80;96489.00;;;;5116566;28;20297;-51
2022/10/13 01:04:18;;;;;;;1.83;1.67;;;11.50;99.90;10.80;96486.00;;;;5116595;28;20269;-51
2022/10/13 01:06:45;;;;;;;1.37;1.30;;;11.50;99.90;10.80;96477.00;;;;5098780;28;20656;-51
2022/10/13 01:09:12;;;;;;;1.67;1.50;;;11.50;99.90;10.80;96471.00;;;;5116462;28;20705;-52
2022/10/13 01:12:02;;;;;;;1.40;1.27;;;11.50;99.90;10.80;96480.00;;;;5116499;28;20250;-51
2022/10/13 01:14:38;;;;;;;1.17;1.17;;;11.50;99.90;10.70;96475.00;;;;5116603;28;20221;-52
2022/10/13 01:17:16;;;;;;;6.47;2.27;;;11.40;99.90;10.70;96478.00;;;;5116370;28;20204;-51
2022/10/13 01:20:18;;;;;;;1.47;1.37;;;11.40;99.90;10.60;96477.00;;;;5116692;28;20201;-51
2022/10/13 01:23:22;;;;;;;1.57;1.50;;;11.40;99.90;10.70;96485.00;;;;5116740;28;20206;-52
2022/10/13 01:26:24;;;;;;;3.97;2.37;;;11.40;99.90;10.80;96477.00;;;;5116468;28;20169;-52
2022/10/13 01:29:18;;;;;;;0.93;0.93;;;11.50;99.90;10.70;96471.00;;;;5098381;28;20252;-52
2022/10/13 01:31:53;;;;;;;1.73;1.63;;;11.50;99.90;10.80;96468.00;;;;5099268;28;20714;-52
2022/10/13 01:34:27;;;;;;;1.30;1.27;;;11.50;99.90;10.80;96473.00;;;;5116501;28;20221;-52
2022/10/13 01:37:06;;;;;;;1.60;1.50;;;11.50;99.90;10.60;96469.00;;;;5116135;28;20565;-52
2022/10/13 01:39:43;;;;;;;1.67;1.60;;;11.40;99.90;10.70;96471.00;;;;5115996;28;20213;-52
2022/10/13 01:42:21;;;;;;;2.07;1.93;;;11.40;99.90;10.80;96464.00;;;;5116001;28;20194;-52
2022/10/13 01:44:54;;;;;;;1.13;1.13;;;11.50;99.90;10.90;96469.00;;;;5116047;28;20276;-52
2022/10/13 01:47:25;;;;;;;1.13;1.13;;;11.50;99.90;10.90;96459.00;;;;5116004;28;20198;-52
2022/10/13 01:49:54;;;;;;;1.67;1.57;;;11.60;99.90;11.00;96458.00;;;;5115735;28;20218;-52
2022/10/13 01:52:26;;;;;;;1.57;1.57;;;11.60;99.90;11.00;96454.00;;;;5115868;28;20229;-52
2022/10/13 01:54:54;;;;;;;2.07;1.97;;;11.70;99.90;11.00;96449.00;;;;5115916;28;20202;-52
2022/10/13 01:57:31;;;;;;;1.60;1.50;;;11.70;99.90;11.10;96448.00;;;;5115765;28;20266;-52
2022/10/13 01:59:59;;;;;;;1.37;1.37;;;11.70;99.90;11.10;96455.00;;;;5116025;28;20685;-52
2022/10/13 02:02:34;;;;;;;2.07;1.60;;;11.80;99.90;11.10;96456.00;;;;5097869;28;20236;-51
2022/10/13 02:05:16;;;;;;;1.83;1.73;;;11.80;99.90;11.10;96450.00;;;;5115842;28;20241;-51
2022/10/13 02:07:51;;;;;;;2.70;2.50;;;11.80;99.90;11.10;96450.00;;;;5115760;28;20211;-52
2022/10/13 02:10:30;;;;;;;1.17;1.17;;;11.80;99.90;11.10;96445.00;;;;5115512;28;20678;-51
2022/10/13 02:13:02;;;;;;;2.40;1.67;;;11.80;99.90;11.10;96460.00;;;;5115669;28;20237;-51
2022/10/13 02:15:34;;;;;;;1.27;1.27;;;11.80;99.90;11.10;96449.00;;;;5115683;28;20217;-51
2022/10/13 02:18:04;;;;;;;1.37;1.30;;;11.80;99.90;11.20;96449.00;;;;5115578;28;20198;-51
2022/10/13 02:20:32;;;;;;;1.00;1.00;;;11.80;99.90;11.20;96448.00;;;;5115517;28;20194;-53
2022/10/13 02:23:06;;;;;;;1.27;1.27;;;11.90;99.90;11.20;96452.00;;;;5115436;28;20198;-52
2022/10/13 02:25:34;;;;;;;2.07;1.97;;;11.90;99.90;11.20;96432.00;;;;5116378;28;20660;-51
2022/10/13 02:28:01;;;;;;;1.60;1.57;;;12.00;99.90;11.20;96431.00;;;;5116654;28;20194;-52
2022/10/13 02:30:30;;;;;;;1.90;1.80;;;11.90;99.90;11.20;96438.00;;;;5097653;28;20534;-52
2022/10/13 02:32:57;;;;;;;2.10;1.93;;;11.90;99.90;11.00;96438.00;;;;5115165;28;20320;-52
2022/10/13 02:35:26;;;;;;;2.00;1.90;;;11.80;99.90;11.10;96436.00;;;;5115056;28;20220;-57
2022/10/13 02:37:53;;;;;;;1.67;1.57;;;11.70;99.90;10.80;96428.00;;;;5115026;28;20293;-51
2022/10/13 02:40:21;;;;;;;2.70;2.13;;;11.50;98.60;10.70;96430.00;;;;5115035;28;20193;-52
2022/10/13 02:42:48;;;;;;;2.30;1.60;;;11.50;99.90;10.60;96432.00;;;;5114709;28;20247;-50
2022/10/13 02:45:14;;;;;;;1.70;1.60;;;11.40;99.90;10.60;96430.00;;;;5114941;28;20246;-49
2022/10/13 02:47:43;;;;;;;2.50;2.30;;;11.30;99.90;10.60;96444.00;;;;5114836;28;20226;-49
2022/10/13 02:50:10;;;;;;;2.23;2.07;;;11.30;99.90;10.60;96445.00;;;;5114630;28;20257;-50
2022/10/13 02:52:37;;;;;;;1.73;1.63;;;11.30;99.90;10.60;96447.00;;;;5115050;28;20706;-49
2022/10/13 02:55:07;;;;;;;2.40;2.20;;;11.30;99.90;10.60;96450.00;;;;5114587;28;20263;-52
2022/10/13 02:57:34;;;;;;;3.60;2.80;;;11.30;99.90;10.60;96444.00;;;;5114864;28;20221;-52
2022/10/13 03:00:01;;;;;;;2.93;2.63;;;11.40;99.90;10.60;96446.00;;;;5114766;28;20209;-50
2022/10/13 03:02:30;;;;;;;1.87;1.77;;;11.30;99.90;10.60;96449.00;;;;5114827;28;20228;-50
2022/10/13 03:04:56;;;;;;;1.27;1.27;;;11.30;99.90;10.50;96443.00;;;;5114676;28;20225;-50
2022/10/13 03:07:23;;;;;;;4.00;2.40;;;11.20;99.90;10.50;96436.00;;;;5114625;28;20588;-50
2022/10/13 03:09:50;;;;;;;1.73;1.63;;;11.20;99.90;10.50;96442.00;;;;5114670;28;20563;-50
2022/10/13 03:12:16;;;;;;;1.33;1.33;;;11.20;99.90;10.50;96446.00;;;;5114495;28;20205;-49
2022/10/13 03:14:43;;;;;;;1.60;1.50;;;11.20;99.90;10.20;96431.00;;;;5096630;28;20548;-49
2022/10/13 03:17:09;;;;;;;2.50;2.30;;;11.30;99.90;10.50;96436.00;;;;5114643;28;20209;-51
2022/10/13 03:19:35;;;;;;;2.17;2.07;;;11.20;99.90;10.60;96426.00;;;;5113604;28;20255;-51
2022/10/13 03:22:02;;;;;;;2.80;2.63;;;11.30;99.90;10.70;96426.00;;;;5114475;28;20548;-50
2022/10/13 03:24:30;;;;;;;1.70;1.60;;;11.30;99.90;10.70;96433.00;;;;5114481;28;20186;-50
2022/10/13 03:26:57;;;;;;;2.80;2.60;;;11.40;99.90;10.80;96424.00;;;;5114242;28;20358;-50
2022/10/13 03:29:24;;;;;;;2.47;2.27;;;11.50;99.90;10.90;96412.00;;;;5114372;28;20213;-49
2022/10/13 03:31:53;;;;;;;2.17;1.97;;;11.50;99.90;10.90;96414.00;;;;5113940;28;20250;-49
2022/10/13 03:34:19;;;;;;;2.67;2.47;;;11.60;99.90;11.00;96402.00;;;;5114280;28;20255;-51
2022/10/13 03:36:46;;;;;;;3.77;2.47;;;11.70;99.90;11.10;96417.00;;;;5114154;28;20214;-51
2022/10/13 03:39:13;;;;;;;4.93;2.53;;;11.80;99.90;11.10;96420.00;;;;5114268;28;20190;-50
2022/10/13 03:41:39;;;;;;;3.37;2.57;;;11.80;99.90;11.20;96426.00;;;;5114366;28;20206;-55
2022/10/13 03:44:07;;;;;;;2.77;2.07;;;11.80;99.90;11.20;96434.00;;;;5114083;28;20668;-53
2022/10/13 03:46:33;;;;;;;2.23;2.07;;;11.80;99.90;11.00;96429.00;;;;5114184;28;20212;-50
2022/10/13 03:48:59;;;;;;;1.63;1.57;;;11.80;99.90;11.10;96430.00;;;;5113871;28;20217;-51
2022/10/13 03:51:28;;;;;;;2.23;2.13;;;11.80;99.90;11.10;96434.00;;;;5114060;28;20228;-51
2022/10/13 03:53:54;;;;;;;2.10;1.83;;;11.80;99.90;11.10;96430.00;;;;5113889;28;20189;-51
2022/10/13 03:56:25;;;;;;;3.97;2.73;;;11.80;99.90;11.10;96427.00;;;;5113988;28;20537;-51
2022/10/13 03:58:53;;;;;;;1.40;1.37;;;11.80;99.90;11.10;96436.00;;;;5114002;28;20190;-51
2022/10/13 04:01:26;;;;;;;6.10;4.33;;;11.80;99.90;11.20;96418.00;;;;5114002;28;20213;-52
2022/10/13 04:03:55;;;;;;;2.17;1.97;;;11.90;99.90;11.20;96417.00;;;;5113979;28;20186;-50
2022/10/13 04:06:22;;;;;;;3.37;3.03;;;11.90;99.90;11.20;96415.00;;;;5113704;28;20264;-50
2022/10/13 04:08:50;;;;;;;1.70;1.60;;;11.90;99.90;11.10;96414.00;;;;5112622;28;20220;-51
2022/10/13 04:11:17;;;;;;;2.03;1.93;;;11.70;99.90;11.00;96409.00;;;;5113701;28;20747;-50
2022/10/13 04:13:44;;;;;;;1.07;1.07;;;11.80;99.90;11.10;96409.00;;;;5113793;28;20198;-51
2022/10/13 04:16:15;;;;;;;3.73;2.17;;;11.80;99.90;11.10;96415.00;;;;5113776;28;20267;-52
2022/10/13 04:18:42;;;;;;;4.40;3.90;;;11.80;99.90;11.10;96417.00;;;;5113778;28;20189;-51
2022/10/13 04:21:11;;;;;;;5.83;2.67;;;11.80;99.90;11.10;96422.00;;;;5095548;28;20237;-51
2022/10/13 04:23:41;;;;;;;2.17;1.97;;;11.70;99.90;11.00;96416.00;;;;5095794;28;20259;-56
2022/10/13 04:26:16;;;;;;;2.77;2.57;;;11.70;99.90;11.00;96424.00;;;;5113632;28;20279;-50
2022/10/13 04:28:44;;;;;;;3.27;2.97;;;11.60;99.90;10.80;96403.00;;;;5113717;28;20222;-52
2022/10/13 04:31:13;;;;;;;1.97;1.87;;;11.50;99.90;10.70;96429.00;;;;5113624;28;20226;-51
2022/10/13 04:33:43;;;;;;;2.90;2.10;;;11.40;99.90;10.60;96398.00;;;;5113592;28;20232;-50
2022/10/13 04:36:12;;;;;;;2.13;2.03;;;11.30;99.90;10.60;96415.00;;;;5112635;28;20230;-50
2022/10/13 04:38:39;;;;;;;2.67;1.60;;;11.30;99.90;10.60;96418.00;;;;5112611;28;20240;-51
2022/10/13 04:41:09;;;;;;;3.20;2.97;;;11.30;99.90;10.60;96420.00;;;;5113589;28;20712;-51
2022/10/13 04:43:36;;;;;;;2.40;2.20;;;11.30;99.90;10.60;96415.00;;;;5095551;28;20202;-50
2022/10/13 04:46:04;;;;;;;1.67;1.63;;;11.30;99.90;10.70;96417.00;;;;5113287;28;20206;-53
2022/10/13 04:48:33;;;;;;;2.53;1.93;;;11.30;99.90;10.80;96413.00;;;;5113460;28;20198;-51
2022/10/13 04:51:03;;;;;;;2.90;2.60;;;11.40;99.90;10.60;96403.00;;;;5095625;28;20209;-51
2022/10/13 04:53:30;;;;;;;3.30;3.07;;;11.30;99.90;10.70;96395.00;;;;5095685;28;20213;-51
2022/10/13 04:56:01;;;;;;;3.37;2.27;;;11.30;99.90;10.70;96395.00;;;;5095482;28;20212;-50
2022/10/13 04:58:28;;;;;;;6.23;2.73;;;11.40;99.90;10.60;96375.00;;;;5113305;28;20535;-51
2022/10/13 05:00:55;;;;;;;2.80;2.50;;;11.30;99.90;10.60;96404.00;;;;5113269;28;20194;-50
2022/10/13 05:03:21;;;;;;;2.93;2.73;;;11.30;99.90;10.80;96412.00;;;;5095276;28;20640;-50
2022/10/13 05:05:48;;;;;;;2.70;2.50;;;11.40;99.90;10.80;96417.00;;;;5095272;28;20482;-50
2022/10/13 05:08:15;;;;;;;2.73;2.53;;;11.50;99.90;10.80;96415.00;;;;5113271;28;20198;-50
2022/10/13 05:10:41;;;;;;;3.30;3.07;;;11.40;99.90;10.70;96421.00;;;;5095356;28;20633;-51
2022/10/13 05:13:08;;;;;;;1.90;1.80;;;11.40;99.90;10.80;96407.00;;;;5113239;28;20221;-52
2022/10/13 05:15:37;;;;;;;4.40;2.50;;;11.40;99.90;10.70;96408.00;;;;5113253;28;20194;-55
2022/10/13 05:18:04;;;;;;;1.97;1.87;;;11.40;99.90;10.60;96405.00;;;;5113038;28;20225;-50
2022/10/13 05:20:30;;;;;;;2.57;2.37;;;11.30;99.90;10.70;96411.00;;;;5116252;28;20218;-50
2022/10/13 05:22:57;;;;;;;2.30;2.10;;;11.40;99.90;10.60;96405.00;;;;5116474;28;20241;-50
2022/10/13 05:25:24;;;;;;;2.53;2.40;;;11.30;99.90;10.60;96407.00;;;;5116458;28;20194;-49
2022/10/13 05:27:50;;;;;;;2.00;1.90;;;11.30;99.90;10.60;96406.00;;;;5116147;28;20222;-50
2022/10/13 05:30:17;;;;;;;3.80;3.50;;;11.30;99.90;10.70;96413.00;;;;5116313;28;20222;-50
2022/10/13 05:32:43;;;;;;;2.60;2.40;;;11.40;99.90;10.80;96417.00;;;;5116278;28;20282;-51
2022/10/13 05:35:09;;;;;;;2.07;1.87;;;11.40;99.90;10.70;96418.00;;;;5116322;28;20205;-49
2022/10/13 05:37:36;;;;;;;2.63;2.13;;;11.40;99.90;10.70;96404.00;;;;5116312;28;20262;-50
2022/10/13 05:40:03;;;;;;;2.07;1.97;;;11.40;99.90;10.50;96407.00;;;;5116306;28;20198;-50
2022/10/13 05:42:30;;;;;;;1.67;1.57;;;;;10.30;96406.00;;;;5116152;28;20292;-49
2022/10/13 05:44:57;;;;;;;2.03;1.93;;;;;10.50;96408.00;;;;5116261;28;20286;-50
2022/10/13 05:47:27;;;;;;;1.47;1.47;;;11.10;99.90;10.40;96400.00;;;;5116177;28;20214;-50
2022/10/13 05:49:53;;;;;;;2.37;2.17;;;11.10;99.90;10.40;96397.00;;;;5116302;28;20656;-51
2022/10/13 05:52:22;;;;;;;2.23;2.03;;;;;10.50;96394.00;;;;5116285;28;20287;-53
2022/10/13 05:54:53;;;;;;;3.10;1.67;;;11.10;99.90;10.60;96387.00;;;;5116207;28;20273;-52
2022/10/13 05:57:24;;;;;;;2.80;2.60;;;11.20;99.90;10.60;96378.00;;;;5116066;28;20220;-51
2022/10/13 05:59:56;;;;;;;1.50;1.47;;;11.30;99.90;10.70;96383.00;;;;5116025;28;20220;-51
2022/10/13 06:02:33;;;;;;;6.77;2.90;;;11.40;99.90;10.70;96384.00;;;;5115836;28;20229;-51
2022/10/13 06:05:02;;;;;;;2.20;2.10;;;11.50;99.90;10.80;96373.00;;;;5115895;28;20183;-52
2022/10/13 06:07:31;;;;;;;2.43;2.33;;;11.50;99.90;10.90;96387.00;;;;5115849;28;20728;-51
2022/10/13 06:10:01;;;;;;;2.30;2.20;;;11.60;99.90;10.90;96388.00;;;;5115800;28;20253;-51
2022/10/13 06:12:27;;;;;;;1.97;1.80;;;11.60;99.90;10.80;96389.00;;;;5115770;28;20217;-51
2022/10/13 06:14:54;;;;;;;3.10;2.07;;;11.50;99.90;10.90;96389.00;;;;5115906;28;20292;-51
2022/10/13 06:17:21;;;;;;;1.23;1.23;;;11.50;99.90;10.90;96385.00;;;;5115681;28;20190;-51
2022/10/13 06:19:49;;;;;;;5.90;3.00;;;11.50;99.90;10.90;96376.00;;;;5115709;28;20237;-51
2022/10/13 06:22:16;;;;;;;3.30;3.00;;;11.60;99.90;10.90;96379.00;;;;5115597;28;20208;-51
2022/10/13 06:24:42;;;;;;;1.43;1.40;;;11.60;99.90;10.70;96386.00;;;;5115623;28;20262;-51
2022/10/13 06:27:10;;;;;;;2.40;2.27;;;11.50;99.90;10.60;96366.00;;;;5115521;28;20303;-51
2022/10/13 06:29:36;;;;;;;2.17;1.97;;;11.30;99.90;10.70;96383.00;;;;5115225;28;20395;-51
2022/10/13 06:32:04;;;;;;;3.47;3.27;;;;;10.80;96381.00;;;;5114619;28;20206;-51
2022/10/13 06:34:31;;;;;;;2.63;2.17;;;11.40;99.90;10.90;96376.00;;;;5115374;28;20250;-51
2022/10/13 06:36:58;;;;;;;2.10;2.00;;;11.50;99.90;11.00;96386.00;;;;5115349;28;20216;-50
2022/10/13 06:39:25;;;;;;;2.97;2.73;;;11.60;99.90;11.10;96378.00;;;;5115279;28;20232;-51
2022/10/13 06:41:51;;;;;;;2.47;2.27;;;11.70;99.90;11.10;96375.00;;;;5115264;28;20290;-52
2022/10/13 06:44:18;;;;;;;4.33;3.93;;;11.70;99.90;11.00;96374.00;;;;5097260;28;20535;-50
2022/10/13 06:46:44;;;;;;;2.33;2.23;;;11.70;99.90;10.80;96367.00;;;;5097422;28;20220;-53
2022/10/13 06:49:14;;;;;;;2.73;2.63;;;11.60;99.90;10.90;96378.00;;;;5115075;28;20297;-51
2022/10/13 06:51:43;;;;;;;2.07;1.97;;;11.60;99.90;11.10;96384.00;;;;5115051;28;20358;-50
2022/10/13 06:54:09;;;;;;;1.83;1.73;;;11.70;99.90;11.00;96381.00;;;;5115065;28;20238;-50
2022/10/13 06:56:36;;;;;;;2.30;2.20;;;11.60;99.90;11.00;96378.00;;;;5096916;28;20241;-50
2022/10/13 06:59:05;;;;;;;2.20;1.97;;;11.60;99.90;11.10;96394.00;;;;5097012;28;20557;-50
2022/10/13 07:01:31;;;;;;;2.73;2.53;;;11.70;99.90;11.00;96386.00;;;;5114819;28;20190;-48
2022/10/13 07:03:58;;;;;;;1.43;1.33;;;11.60;99.90;11.00;96391.00;;;;5115001;28;20217;-50
2022/10/13 07:06:27;;;;;;;3.20;3.00;;;11.60;99.90;10.90;96380.00;;;;5115080;28;20198;-50
2022/10/13 07:08:53;;;;;;;3.03;2.23;;;11.60;99.90;11.00;96390.00;;;;5114885;28;20237;-50
2022/10/13 07:11:20;;;;;;;3.10;2.63;;;11.60;99.90;11.20;96389.00;;;;5114875;28;20263;-51
2022/10/13 07:13:47;;;;;;;2.40;2.30;;;;;11.10;96392.00;;;;5114772;28;20282;-51
2022/10/13 07:16:14;;;;;;;2.10;2.00;;;11.80;99.90;11.00;96407.00;;;;5114775;28;20221;-52
2022/10/13 07:18:43;;;;;;;2.20;1.90;;;11.70;99.90;10.90;96402.00;;;;5114682;28;20659;-50
2022/10/13 07:21:09;;;;;;;2.70;2.50;;;11.60;99.90;11.10;96396.00;;;;5114669;28;20217;-50
2022/10/13 07:23:36;;;;;;;1.23;1.23;;;11.70;99.90;11.00;96393.00;;;;5096736;28;20649;-50
2022/10/13 07:26:07;;;;;;;2.00;1.90;;;11.70;99.90;11.10;96388.00;;;;5114595;28;20228;-51
2022/10/13 07:28:34;;;;;;;5.00;3.60;;;11.70;99.90;11.20;96389.00;;;;5114585;28;20293;-50
2022/10/13 07:31:06;;;;;;;1.67;1.57;;;11.80;99.90;11.20;96388.00;;;;5114659;28;20275;-51
2022/10/13 07:33:33;;;;;;;1.50;1.47;;;11.80;99.90;11.10;96382.00;;;;5096778;28;20221;-51
2022/10/13 07:35:59;;;;;;;4.37;3.90;;;11.70;99.90;11.10;96374.00;;;;5114508;28;20220;-52
2022/10/13 07:38:25;;;;;;;3.73;3.40;;;11.70;99.90;11.20;96386.00;;;;5114474;28;20206;-50
2022/10/13 07:40:52;;;;;;;2.63;2.43;;;11.80;99.90;11.40;96382.00;;;;5114477;28;20222;-50
2022/10/13 07:43:19;;;;;;;1.60;1.50;;;11.90;99.90;11.40;96381.00;;;;5096258;28;20374;-52
2022/10/13 07:45:45;;;;;;;1.83;1.73;;;12.00;99.90;11.50;96384.00;;;;5096418;28;20202;-51
2022/10/13 07:48:12;;;;;;;1.33;1.33;;;12.10;99.90;11.60;96366.00;;;;5114278;28;20304;-50
2022/10/13 07:50:38;;;;;;;3.50;1.73;;;12.20;99.90;11.70;96367.00;;;;5114280;28;20304;-51
2022/10/13 07:53:05;;;;;;;2.67;2.47;;;12.80;99.90;11.50;96367.00;;;;5114208;28;20205;-51
2022/10/13 07:55:32;;;;;;;4.10;2.53;;;12.20;99.90;11.60;96362.00;;;;5114110;28;20214;-50
2022/10/13 07:58:02;;;;;;;1.97;1.77;;;12.20;99.90;11.50;96367.00;;;;5114167;28;20202;-51
2022/10/13 08:00:29;;;;;;;2.43;2.23;;;12.10;99.90;11.70;96341.00;;;;5113990;28;20302;-52
2022/10/13 08:02:55;;;;;;;2.13;2.03;;;12.20;99.90;11.80;96356.00;;;;5114246;28;20190;-51
2022/10/13 08:05:22;;;;;;;1.53;1.43;;;12.30;99.90;12.00;96350.00;;;;5114030;28;20289;-51
2022/10/13 08:07:48;;;;;;;1.97;1.77;;;12.50;99.90;12.30;96356.00;;;;5114105;28;20213;-51
2022/10/13 08:10:17;;;;;;;2.30;2.10;;;12.70;99.90;12.40;96356.00;;;;5114021;28;20217;-53
2022/10/13 08:12:43;;;;;;;2.97;2.23;;;12.90;99.90;12.10;96358.00;;;;5114002;28;20899;-51
2022/10/13 08:15:13;;;;;;;1.53;1.47;;;12.70;99.90;12.00;96350.00;;;;5113989;28;20217;-51
2022/10/13 08:17:39;;;;;;;4.00;2.17;;;12.60;99.90;11.70;96350.00;;;;5113844;28;20222;-50
2022/10/13 08:20:07;;;;;;;1.90;1.80;;;;;12.00;96351.00;;;;5113948;28;20273;-50
2022/10/13 08:22:34;;;;;;;2.00;1.90;;;12.60;99.90;11.90;96352.00;;;;5113832;28;20235;-51
2022/10/13 08:25:03;;;;;;;2.73;2.53;;;12.50;99.90;11.70;96346.00;;;;5113786;28;20224;-51
2022/10/13 08:27:31;;;;;;;1.90;1.80;;;12.40;99.90;11.80;96342.00;;;;5095810;28;20510;-51
2022/10/13 08:30:01;;;;;;;1.70;1.47;;;12.40;99.90;11.90;96345.00;;;;5113524;28;20261;-50
2022/10/13 08:32:28;;;;;;;2.83;2.53;;;12.50;99.90;12.10;96346.00;;;;5113752;28;20746;-50
2022/10/13 08:34:54;;;;;;;1.77;1.70;;;12.50;99.90;11.90;96336.00;;;;5113792;28;20322;-51
2022/10/13 08:37:23;;;;;;;2.00;1.90;;;12.60;99.90;12.00;96345.00;;;;5113681;28;20206;-51
2022/10/13 08:39:49;;;;;;;3.93;3.63;;;12.70;99.90;12.30;96339.00;;;;5113643;28;20200;-50
2022/10/13 08:42:20;;;;;;;1.97;1.87;;;12.80;99.90;12.20;96340.00;;;;5113634;28;20630;-50
2022/10/13 08:44:52;;;;;;;2.50;2.30;;;12.80;99.90;12.60;96341.00;;;;5113784;28;20247;-51
2022/10/13 08:47:41;;;;;;;1.77;1.67;;;13.00;99.90;12.80;96325.00;;;;5095802;28;20322;-51
2022/10/13 08:50:15;;;;;;;2.63;2.07;;;13.30;99.90;12.90;96341.00;;;;5113366;28;20228;-51
2022/10/13 08:52:49;;;;;;;3.30;2.50;;;13.40;99.90;13.10;96354.00;;;;5113365;28;20221;-51
2022/10/13 08:55:25;;;;;;;2.13;2.03;;;13.50;97.90;12.90;96338.00;;;;5116714;28;20285;-51
2022/10/13 08:57:52;;;;;;;1.43;1.33;;;13.40;97.40;12.90;96345.00;;;;5116900;28;20198;-51
2022/10/13 09:00:19;;;;;;;2.43;2.23;;;13.30;97.30;12.80;96345.00;;;;5117097;28;20205;-52
2022/10/13 09:02:46;;;;;;;1.83;1.73;;;;;13.00;96338.00;;;;5117001;28;20182;-51
2022/10/13 09:05:30;;;;;;;2.67;1.70;;;13.30;97.70;12.70;96342.00;;;;5099139;28;20608;-50
2022/10/13 09:07:59;;;;;;;2.83;2.63;;;13.30;99.10;12.90;96343.00;;;;5098949;28;20585;-51
2022/10/13 09:10:26;;;;;;;3.50;2.40;;;13.50;99.30;12.80;96343.00;;;;5099024;28;20240;-52
2022/10/13 09:12:52;;;;;;;1.47;1.37;;;13.40;99.70;12.80;96346.00;;;;5116695;28;20284;-51
2022/10/13 09:15:19;;;;;;;1.53;1.43;;;13.40;99.70;13.10;96345.00;;;;5116659;28;20276;-51
2022/10/13 09:18:11;;;;;;;2.03;1.93;;;13.50;99.90;13.10;96340.00;;;;5116732;28;20669;-51
2022/10/13 09:20:40;;;;;;;7.60;1.73;;;13.60;99.10;13.00;96341.00;;;;5116601;28;20198;-50
2022/10/13 09:23:18;;;;;;;2.07;1.97;;;13.60;97.40;13.10;96341.00;;;;5098779;28;20261;-50
2022/10/13 09:25:49;;;;;;;2.70;1.87;;;13.60;99.50;13.10;96340.00;;;;5116678;28;20189;-51
2022/10/13 09:28:22;;;;;;;1.80;1.70;;;13.70;97.70;13.10;96331.00;;;;5115544;28;20303;-51
2022/10/13 09:31:00;;;;;;;2.87;2.67;;;13.70;98.20;13.30;96341.00;;;;5116456;28;20230;-50
2022/10/13 09:33:28;;;;;;;1.97;1.87;;;13.80;98.30;13.70;96341.00;;;;5116547;28;20217;-52
2022/10/13 09:36:14;;;;;;;2.17;2.07;;;14.10;98.90;13.70;96332.00;;;;5116451;28;20216;-50
2022/10/13 09:38:44;;;;;;;1.27;1.20;;;;;13.60;96331.00;;;;5116267;28;20221;-51
2022/10/13 09:41:18;;;;;;;5.80;2.83;;;;;13.80;96341.00;;;;5116380;28;20305;-53
2022/10/13 09:44:04;;;;;;;2.60;2.37;;;14.40;95.30;13.80;96340.00;;;;5116293;28;20186;-50
2022/10/13 09:46:35;;;;;;;1.67;1.57;;;14.30;94.90;13.90;96321.00;;;;5116254;28;20228;-51
2022/10/13 09:49:19;;;;;;;1.10;1.10;;;14.40;94.70;13.70;96339.00;;;;5116188;28;20260;-50
2022/10/13 09:51:47;;;;;;;2.90;1.87;;;14.30;93.50;13.80;96339.00;;;;5116126;28;20507;-51
2022/10/13 09:54:27;;;;;;;1.03;1.03;;;;;13.80;96342.00;;;;5098302;28;20629;-50
2022/10/13 09:57:04;;;;;;;4.33;2.30;;;14.30;93.10;13.70;96341.00;;;;5098048;28;20217;-50
2022/10/13 09:59:35;;;;;;;1.47;1.43;;;14.30;95.00;13.80;96341.00;;;;5116029;28;20665;-51
2022/10/13 10:02:27;;;;;;;3.13;2.60;;;14.10;93.60;13.60;96332.00;;;;5098271;28;20329;-51
2022/10/13 10:05:01;;;;;;;1.90;1.47;;;14.10;94.40;13.80;96335.00;;;;5115245;28;20198;-51
2022/10/13 10:07:32;;;;;;;4.93;3.13;;;14.30;94.80;13.80;96341.00;;;;5115509;28;20243;-51
2022/10/13 10:10:05;;;;;;;1.23;1.23;;;14.30;93.70;13.70;96339.00;;;;5115885;28;20347;-50
2022/10/13 10:12:40;;;;;;;2.40;2.27;;;14.30;94.10;13.80;96337.00;;;;5115976;28;20594;-50
2022/10/13 10:15:20;;;;;;;2.10;1.90;;;14.40;93.70;13.90;96335.00;;;;5115962;28;20198;-51
2022/10/13 10:17:54;;;;;;;2.10;2.00;;;14.50;93.50;14.10;96330.00;;;;5098018;28;20186;-52
2022/10/13 10:20:54;;;;;;;1.17;1.17;;;14.60;93.20;14.40;96323.00;;;;5115599;28;20300;-51
2022/10/13 10:23:41;;;;;;;1.20;1.20;;;14.80;91.60;14.60;96324.00;;;;5115711;28;20194;-51
2022/10/13 10:26:17;;;;;;;1.70;1.50;;;15.00;91.30;14.80;96304.00;;;;5115657;28;20222;-52
2022/10/13 10:29:01;;;;;;;1.43;1.33;;;15.20;90.10;15.00;96330.00;;;;5115792;28;20208;-53
2022/10/13 10:31:51;;;;;;;1.77;1.47;;;15.40;89.80;15.10;96327.00;;;;5097729;28;20248;-53
2022/10/13 10:34:45;;;;;;;2.67;1.27;;;15.50;89.10;15.40;96323.00;;;;5115631;28;20226;-50
2022/10/13 10:37:32;;;;;;;1.40;1.40;;;15.80;96.10;15.50;96322.00;;;;5114566;28;20653;-50
2022/10/13 10:40:12;;;;;;;1.73;1.63;;;15.90;88.00;15.50;96317.00;;;;5115579;28;20531;-53
2022/10/13 10:43:05;;;;;;;1.27;1.17;;;16.00;85.70;15.30;96305.00;;;;5115365;28;20312;-51
2022/10/13 10:45:37;;;;;;;1.83;1.73;;;15.90;84.50;15.30;96302.00;;;;5114420;28;20214;-51
2022/10/13 10:48:16;;;;;;;1.70;1.63;;;15.80;85.40;15.50;96305.00;;;;5115207;28;20225;-51
2022/10/13 10:50:43;;;;;;;6.67;2.77;;;15.90;99.90;15.60;96300.00;;;;5115117;28;20220;-51
2022/10/13 10:53:20;;;;;;;2.57;2.33;;;16.10;84.60;15.90;96303.00;;;;5115244;28;20732;-51
2022/10/13 10:55:54;;;;;;;3.60;3.03;;;16.30;86.40;15.70;96302.00;;;;5097200;28;20280;-50
2022/10/13 10:58:34;;;;;;;1.77;1.67;;;16.10;82.60;15.60;96302.00;;;;5115267;28;20273;-51
2022/10/13 11:01:13;;;;;;;1.20;1.20;;;16.00;81.90;15.90;96297.00;;;;5115096;28;20209;-51
2022/10/13 11:03:48;;;;;;;0.60;0.60;;;16.20;81.80;15.50;96284.00;;;;5115129;28;20279;-51
2022/10/13 11:06:32;;;;;;;1.60;1.40;;;16.10;81.40;15.70;96284.00;;;;5096929;28;20225;-51
2022/10/13 11:09:00;;;;;;;1.03;1.03;;;16.20;82.50;15.80;96280.00;;;;5115031;28;20197;-51
2022/10/13 11:11:40;;;;;;;1.33;1.33;;;16.30;80.20;15.80;96277.00;;;;5114885;28;20252;-51
2022/10/13 11:14:30;;;;;;;0.50;0.50;;;16.30;81.30;16.20;96271.00;;;;5097025;28;20198;-51